sensor_id;sensor_type;location;lat;lon;timestamp;pressure;altitude;pressure_sealevel;temperature;humidity
11172;BME280;5642;50.830;12.082;2023-04-10T00:00:24;100359.50;;;6.14;38.67
11172;BME280;5642;50.830;12.082;2023-04-10T00:02:52;100363.84;;;6.14;38.79
11172;BME280;5642;50.830;12.082;2023-04-10T00:05:18;100357.75;;;6.13;38.56
11172;BME280;5642;50.830;12.082;2023-04-10T00:07:45;100362.97;;;6.15;38.70
11172;BME280;5642;50.830;12.082;2023-04-10T00:10:11;100357.75;;;6.12;38.64
11172;BME280;5642;50.830;12.082;2023-04-10T00:12:38;100357.75;;;6.06;38.54
11172;BME280;5642;50.830;12.082;2023-04-10T00:15:04;100356.03;;;6.03;38.71
11172;BME280;5642;50.830;12.082;2023-04-10T00:17:31;100356.91;;;6.04;38.74
11172;BME280;5642;50.830;12.082;2023-04-10T00:19:57;100364.72;;;6.04;38.79
11172;BME280;5642;50.830;12.082;2023-04-10T00:22:24;100356.00;;;6.00;38.87
11172;BME280;5642;50.830;12.082;2023-04-10T00:24:50;100354.28;;;5.95;38.93
11172;BME280;5642;50.830;12.082;2023-04-10T00:27:16;100349.03;;;5.90;39.07
11172;BME280;5642;50.830;12.082;2023-04-10T00:29:43;100358.59;;;5.93;39.05
11172;BME280;5642;50.830;12.082;2023-04-10T00:32:09;100350.75;;;5.86;38.74
11172;BME280;5642;50.830;12.082;2023-04-10T00:34:36;100350.75;;;5.86;38.69
11172;BME280;5642;50.830;12.082;2023-04-10T00:37:02;100354.22;;;5.85;38.79
11172;BME280;5642;50.830;12.082;2023-04-10T00:39:28;100354.25;;;5.88;38.72
11172;BME280;5642;50.830;12.082;2023-04-10T00:41:54;100340.34;;;5.85;38.91
11172;BME280;5642;50.830;12.082;2023-04-10T00:44:23;100339.53;;;5.87;39.10
11172;BME280;5642;50.830;12.082;2023-04-10T00:46:49;100329.94;;;5.83;38.89
11172;BME280;5642;50.830;12.082;2023-04-10T00:49:18;100331.69;;;5.81;39.04
11172;BME280;5642;50.830;12.082;2023-04-10T00:51:45;100329.94;;;5.79;38.69
11172;BME280;5642;50.830;12.082;2023-04-10T00:54:12;100333.41;;;5.81;38.92
11172;BME280;5642;50.830;12.082;2023-04-10T00:56:38;100336.88;;;5.81;38.86
11172;BME280;5642;50.830;12.082;2023-04-10T00:59:05;100338.59;;;5.85;39.01
11172;BME280;5642;50.830;12.082;2023-04-10T01:01:31;100331.66;;;5.84;38.97
11172;BME280;5642;50.830;12.082;2023-04-10T01:03:57;100332.56;;;5.91;39.02
11172;BME280;5642;50.830;12.082;2023-04-10T01:06:49;100341.28;;;5.95;38.90
11172;BME280;5642;50.830;12.082;2023-04-10T01:15:12;100325.59;;;5.78;39.18
11172;BME280;5642;50.830;12.082;2023-04-10T01:17:47;100326.47;;;5.75;39.06
11172;BME280;5642;50.830;12.082;2023-04-10T01:20:20;100312.56;;;5.67;39.27
11172;BME280;5642;50.830;12.082;2023-04-10T01:23:20;100324.72;;;5.71;38.99
11172;BME280;5642;50.830;12.082;2023-04-10T01:25:55;100328.16;;;5.69;38.98
11172;BME280;5642;50.830;12.082;2023-04-10T01:31:24;100335.97;;;5.66;39.40
11172;BME280;5642;50.830;12.082;2023-04-10T01:33:57;100330.75;;;5.66;39.40
11172;BME280;5642;50.830;12.082;2023-04-10T01:36:37;100336.81;;;5.60;38.91
11172;BME280;5642;50.830;12.082;2023-04-10T01:39:05;100335.06;;;5.53;39.06
11172;BME280;5642;50.830;12.082;2023-04-10T01:41:35;100335.91;;;5.50;39.29
11172;BME280;5642;50.830;12.082;2023-04-10T01:44:03;100321.16;;;5.39;39.28
11172;BME280;5642;50.830;12.082;2023-04-10T01:46:31;100333.28;;;5.44;39.34
11172;BME280;5642;50.830;12.082;2023-04-10T01:49:01;100334.16;;;5.39;39.25
11172;BME280;5642;50.830;12.082;2023-04-10T01:51:29;100322.81;;;5.25;39.12
11172;BME280;5642;50.830;12.082;2023-04-10T01:53:56;100318.47;;;5.22;39.72
11172;BME280;5642;50.830;12.082;2023-04-10T01:56:23;100328.00;;;5.26;39.57
11172;BME280;5642;50.830;12.082;2023-04-10T01:58:49;100333.19;;;5.23;39.75
11172;BME280;5642;50.830;12.082;2023-04-10T02:01:20;100331.44;;;5.18;39.71
11172;BME280;5642;50.830;12.082;2023-04-10T02:03:46;100341.81;;;5.16;39.71
11172;BME280;5642;50.830;12.082;2023-04-10T02:06:39;100337.47;;;5.09;39.30
11172;BME280;5642;50.830;12.082;2023-04-10T02:09:18;100336.56;;;5.02;39.60
11172;BME280;5642;50.830;12.082;2023-04-10T02:14:24;100329.63;;;5.01;39.28
11172;BME280;5642;50.830;12.082;2023-04-10T02:16:54;100330.50;;;5.02;39.93
11172;BME280;5642;50.830;12.082;2023-04-10T02:19:22;100323.56;;;5.01;39.64
11172;BME280;5642;50.830;12.082;2023-04-10T02:21:50;100326.13;;;4.99;39.75
11172;BME280;5642;50.830;12.082;2023-04-10T02:24:18;100332.22;;;5.01;39.67
11172;BME280;5642;50.830;12.082;2023-04-10T02:26:48;100331.38;;;5.02;40.08
11172;BME280;5642;50.830;12.082;2023-04-10T02:29:14;100331.34;;;5.01;40.04
11172;BME280;5642;50.830;12.082;2023-04-10T02:31:41;100327.00;;;5.00;40.03
11172;BME280;5642;50.830;12.082;2023-04-10T02:34:07;100323.56;;;5.01;39.94
11172;BME280;5642;50.830;12.082;2023-04-10T02:36:35;100331.34;;;5.01;39.52
11172;BME280;5642;50.830;12.082;2023-04-10T02:39:01;100327.00;;;4.97;39.74
11172;BME280;5642;50.830;12.082;2023-04-10T02:41:30;100325.25;;;4.94;39.59
11172;BME280;5642;50.830;12.082;2023-04-10T02:43:59;100327.00;;;4.95;39.69
11172;BME280;5642;50.830;12.082;2023-04-10T02:46:25;100318.28;;;4.83;39.56
11172;BME280;5642;50.830;12.082;2023-04-10T02:48:54;100330.41;;;4.91;40.12
11172;BME280;5642;50.830;12.082;2023-04-10T02:51:21;100328.69;;;4.87;39.46
11172;BME280;5642;50.830;12.082;2023-04-10T02:53:47;100342.56;;;4.94;39.80
11172;BME280;5642;50.830;12.082;2023-04-10T02:56:13;100339.09;;;4.95;39.91
11172;BME280;5642;50.830;12.082;2023-04-10T02:58:39;100336.53;;;4.99;39.77
11172;BME280;5642;50.830;12.082;2023-04-10T03:01:06;100338.25;;;4.99;39.50
11172;BME280;5642;50.830;12.082;2023-04-10T03:03:32;100320.91;;;4.92;39.86
11172;BME280;5642;50.830;12.082;2023-04-10T03:05:58;100323.44;;;4.84;39.84
11172;BME280;5642;50.830;12.082;2023-04-10T03:08:25;100339.06;;;4.92;39.64
11172;BME280;5642;50.830;12.082;2023-04-10T03:10:51;100342.53;;;4.92;40.03
11172;BME280;5642;50.830;12.082;2023-04-10T03:13:17;100337.34;;;4.89;40.27
11172;BME280;5642;50.830;12.082;2023-04-10T03:15:46;100339.09;;;4.93;39.76
11172;BME280;5642;50.830;12.082;2023-04-10T03:18:12;100345.19;;;4.95;40.19
11172;BME280;5642;50.830;12.082;2023-04-10T03:20:38;100353.84;;;4.99;39.68
11172;BME280;5642;50.830;12.082;2023-04-10T03:23:05;100337.41;;;5.00;39.95
11172;BME280;5642;50.830;12.082;2023-04-10T03:25:35;100331.34;;;4.96;39.78
11172;BME280;5642;50.830;12.082;2023-04-10T03:28:05;100335.63;;;4.97;40.31
11172;BME280;5642;50.830;12.082;2023-04-10T03:30:31;100333.03;;;4.94;39.94
11172;BME280;5642;50.830;12.082;2023-04-10T03:32:59;100340.00;;;4.97;39.45
11172;BME280;5642;50.830;12.082;2023-04-10T03:35:25;100324.31;;;4.85;39.77
11172;BME280;5642;50.830;12.082;2023-04-10T03:37:51;100332.13;;;4.86;39.77
11172;BME280;5642;50.830;12.082;2023-04-10T03:40:18;100344.25;;;4.90;39.85
11172;BME280;5642;50.830;12.082;2023-04-10T03:42:44;100323.44;;;4.81;40.38
11172;BME280;5642;50.830;12.082;2023-04-10T03:45:11;100325.19;;;4.81;40.00
11172;BME280;5642;50.830;12.082;2023-04-10T03:47:38;100332.09;;;4.80;39.83
11172;BME280;5642;50.830;12.082;2023-04-10T03:50:04;100331.19;;;4.77;40.46
11172;BME280;5642;50.830;12.082;2023-04-10T03:52:30;100325.13;;;4.76;40.37
11172;BME280;5642;50.830;12.082;2023-04-10T03:54:56;100333.81;;;4.80;40.05
11172;BME280;5642;50.830;12.082;2023-04-10T03:57:26;100338.16;;;4.85;40.34
11172;BME280;5642;50.830;12.082;2023-04-10T03:59:52;100340.78;;;4.87;40.12
11172;BME280;5642;50.830;12.082;2023-04-10T04:02:20;100332.13;;;4.86;39.69
11172;BME280;5642;50.830;12.082;2023-04-10T04:04:56;100332.13;;;4.86;40.15
11172;BME280;5642;50.830;12.082;2023-04-10T04:07:22;100329.50;;;4.80;40.14
11172;BME280;5642;50.830;12.082;2023-04-10T04:09:48;100335.63;;;4.88;40.48
11172;BME280;5642;50.830;12.082;2023-04-10T04:12:14;100326.91;;;4.85;40.36
11172;BME280;5642;50.830;12.082;2023-04-10T04:14:40;100331.25;;;4.86;40.62
11172;BME280;5642;50.830;12.082;2023-04-10T04:17:07;100351.16;;;4.85;40.35
11172;BME280;5642;50.830;12.082;2023-04-10T04:19:34;100346.84;;;4.86;40.51
11172;BME280;5642;50.830;12.082;2023-04-10T04:22:00;100348.53;;;4.81;39.98
11172;BME280;5642;50.830;12.082;2023-04-10T04:24:26;100337.25;;;4.77;40.42
11172;BME280;5642;50.830;12.082;2023-04-10T04:26:52;100342.47;;;4.80;40.42
11172;BME280;5642;50.830;12.082;2023-04-10T04:29:18;100308.63;;;4.60;40.04
11172;BME280;5642;50.830;12.082;2023-04-10T04:32:07;100344.19;;;4.78;39.85
11172;BME280;5642;50.830;12.082;2023-04-10T04:34:47;100305.06;;;4.49;40.19
11172;BME280;5642;50.830;12.082;2023-04-10T04:37:22;100280.69;;;4.29;39.77
11172;BME280;5642;50.830;12.082;2023-04-10T04:39:59;100283.31;;;4.32;40.07
11172;BME280;5642;50.830;12.082;2023-04-10T04:42:30;100310.28;;;4.55;40.06
11172;BME280;5642;50.830;12.082;2023-04-10T04:44:57;100350.31;;;4.91;40.02
11172;BME280;5642;50.830;12.082;2023-04-10T04:47:23;100347.78;;;4.97;40.26
11172;BME280;5642;50.830;12.082;2023-04-10T04:49:49;100346.91;;;4.99;39.85
11172;BME280;5642;50.830;12.082;2023-04-10T04:52:15;100347.78;;;5.00;40.47
11172;BME280;5642;50.830;12.082;2023-04-10T04:54:41;100333.03;;;4.93;40.33
11172;BME280;5642;50.830;12.082;2023-04-10T04:57:07;100336.53;;;4.96;39.81
11172;BME280;5642;50.830;12.082;2023-04-10T04:59:34;100323.50;;;4.93;40.48
11172;BME280;5642;50.830;12.082;2023-04-10T05:02:00;100339.16;;;5.04;40.55
11172;BME280;5642;50.830;12.082;2023-04-10T05:04:26;100339.19;;;5.13;40.18
11172;BME280;5642;50.830;12.082;2023-04-10T05:06:52;100346.19;;;5.25;39.69
11172;BME280;5642;50.830;12.082;2023-04-10T05:09:18;100332.34;;;5.27;39.76
11172;BME280;5642;50.830;12.082;2023-04-10T05:11:45;100338.44;;;5.32;39.97
11172;BME280;5642;50.830;12.082;2023-04-10T05:14:11;100329.81;;;5.42;39.62
11172;BME280;5642;50.830;12.082;2023-04-10T05:16:37;100330.75;;;5.61;39.59
11172;BME280;5642;50.830;12.082;2023-04-10T05:19:03;100341.28;;;5.96;39.38
11172;BME280;5642;50.830;12.082;2023-04-10T05:21:31;100321.38;;;6.30;38.80
11172;BME280;5642;50.830;12.082;2023-04-10T05:23:57;100331.72;;;6.88;38.40
11172;BME280;5642;50.830;12.082;2023-04-10T05:26:23;100328.97;;;7.33;38.16
11172;BME280;5642;50.830;12.082;2023-04-10T05:28:49;100332.25;;;7.78;37.41
11172;BME280;5642;50.830;12.082;2023-04-10T05:31:16;100319.81;;;8.21;37.26
11172;BME280;5642;50.830;12.082;2023-04-10T05:33:42;100317.44;;;8.94;36.78
11172;BME280;5642;50.830;12.082;2023-04-10T05:36:09;100332.97;;;9.80;35.73
11172;BME280;5642;50.830;12.082;2023-04-10T05:38:35;100321.47;;;10.48;35.34
11172;BME280;5642;50.830;12.082;2023-04-10T05:41:03;100325.53;;;11.14;34.96
11172;BME280;5642;50.830;12.082;2023-04-10T05:43:29;100306.72;;;11.78;34.41
11172;BME280;5642;50.830;12.082;2023-04-10T05:45:56;100322.03;;;12.70;33.74
11172;BME280;5642;50.830;12.082;2023-04-10T05:48:22;100317.19;;;13.51;33.48
11172;BME280;5642;50.830;12.082;2023-04-10T05:50:51;100303.28;;;14.31;33.22
11172;BME280;5642;50.830;12.082;2023-04-10T05:53:18;100312.94;;;15.09;32.72
11172;BME280;5642;50.830;12.082;2023-04-10T05:55:50;100304.28;;;15.77;32.46
11172;BME280;5642;50.830;12.082;2023-04-10T05:58:17;100298.50;;;16.55;32.09
11172;BME280;5642;50.830;12.082;2023-04-10T06:00:43;100295.59;;;17.21;31.96
11172;BME280;5642;50.830;12.082;2023-04-10T06:03:10;100289.16;;;17.85;31.74
11172;BME280;5642;50.830;12.082;2023-04-10T06:05:36;100284.84;;;18.37;31.59
11172;BME280;5642;50.830;12.082;2023-04-10T06:08:02;100288.88;;;18.97;31.27
11172;BME280;5642;50.830;12.082;2023-04-10T06:10:28;100284.06;;;19.54;30.98
11172;BME280;5642;50.830;12.082;2023-04-10T06:12:55;100290.53;;;20.13;30.71
11172;BME280;5642;50.830;12.082;2023-04-10T06:15:21;100288.94;;;20.56;30.81
11172;BME280;5642;50.830;12.082;2023-04-10T06:17:48;100283.25;;;20.92;30.43
11172;BME280;5642;50.830;12.082;2023-04-10T06:20:15;100282.47;;;21.20;30.28
11172;BME280;5642;50.830;12.082;2023-04-10T06:22:41;100265.91;;;21.29;30.30
11172;BME280;5642;50.830;12.082;2023-04-10T06:25:08;100285.50;;;21.56;30.63
11172;BME280;5642;50.830;12.082;2023-04-10T06:27:35;100273.41;;;21.65;30.44
11172;BME280;5642;50.830;12.082;2023-04-10T06:30:01;100278.13;;;21.88;30.39
11172;BME280;5642;50.830;12.082;2023-04-10T06:32:27;100280.19;;;22.11;30.34
11172;BME280;5642;50.830;12.082;2023-04-10T06:34:54;100279.16;;;22.53;30.44
11172;BME280;5642;50.830;12.082;2023-04-10T06:37:29;100268.34;;;22.82;30.41
11172;BME280;5642;50.830;12.082;2023-04-10T06:40:16;100264.09;;;23.30;30.09
11172;BME280;5642;50.830;12.082;2023-04-10T06:42:42;100250.47;;;23.71;30.19
11172;BME280;5642;50.830;12.082;2023-04-10T06:45:09;100238.66;;;24.23;30.05
11172;BME280;5642;50.830;12.082;2023-04-10T06:47:35;100256.66;;;24.90;29.47
11172;BME280;5642;50.830;12.082;2023-04-10T06:50:02;100252.31;;;25.34;29.43
11172;BME280;5642;50.830;12.082;2023-04-10T06:52:30;100220.25;;;25.66;29.23
11172;BME280;5642;50.830;12.082;2023-04-10T06:54:56;100238.44;;;26.17;29.24
11172;BME280;5642;50.830;12.082;2023-04-10T06:57:22;100252.69;;;26.60;29.21
11172;BME280;5642;50.830;12.082;2023-04-10T06:59:50;100218.47;;;26.83;28.96
11172;BME280;5642;50.830;12.082;2023-04-10T07:02:24;100214.22;;;27.32;28.83
11172;BME280;5642;50.830;12.082;2023-04-10T07:04:50;100213.25;;;27.73;28.61
11172;BME280;5642;50.830;12.082;2023-04-10T07:07:17;100246.09;;;28.35;28.48
11172;BME280;5642;50.830;12.082;2023-04-10T07:09:44;100234.03;;;28.78;28.29
11172;BME280;5642;50.830;12.082;2023-04-10T07:12:11;100238.47;;;29.26;28.38
11172;BME280;5642;50.830;12.082;2023-04-10T07:14:41;100239.41;;;29.71;28.10
11172;BME280;5642;50.830;12.082;2023-04-10T07:17:08;100238.72;;;29.96;28.07
11172;BME280;5642;50.830;12.082;2023-04-10T07:19:34;100226.00;;;30.24;28.02
11172;BME280;5642;50.830;12.082;2023-04-10T07:22:01;100233.75;;;30.55;28.01
11172;BME280;5642;50.830;12.082;2023-04-10T07:24:27;100230.38;;;30.79;27.96
11172;BME280;5642;50.830;12.082;2023-04-10T07:26:54;100231.00;;;31.16;27.97
11172;BME280;5642;50.830;12.082;2023-04-10T07:29:22;100188.63;;;31.33;27.42
11172;BME280;5642;50.830;12.082;2023-04-10T07:31:49;100222.41;;;31.97;27.58
11172;BME280;5642;50.830;12.082;2023-04-10T07:34:15;100225.88;;;32.39;27.05
11172;BME280;5642;50.830;12.082;2023-04-10T07:37:03;100226.22;;;32.85;27.18
11172;BME280;5642;50.830;12.082;2023-04-10T07:39:30;100216.88;;;33.03;27.30
11172;BME280;5642;50.830;12.082;2023-04-10T07:41:56;100218.00;;;33.25;27.02
11172;BME280;5642;50.830;12.082;2023-04-10T07:44:22;100219.59;;;33.59;27.41
11172;BME280;5642;50.830;12.082;2023-04-10T07:46:48;100208.13;;;33.79;26.89
11172;BME280;5642;50.830;12.082;2023-04-10T07:49:22;100215.13;;;33.66;27.02
11172;BME280;5642;50.830;12.082;2023-04-10T07:51:50;100207.00;;;33.66;27.04
11172;BME280;5642;50.830;12.082;2023-04-10T07:54:18;100208.09;;;33.88;26.82
11172;BME280;5642;50.830;12.082;2023-04-10T07:56:45;100194.59;;;34.25;26.67
11172;BME280;5642;50.830;12.082;2023-04-10T07:59:14;100191.38;;;34.67;26.19
11172;BME280;5642;50.830;12.082;2023-04-10T08:01:41;100179.75;;;35.17;26.13
11172;BME280;5642;50.830;12.082;2023-04-10T08:04:07;100146.38;;;35.23;26.02
11172;BME280;5642;50.830;12.082;2023-04-10T08:06:33;100170.38;;;35.49;26.08
11172;BME280;5642;50.830;12.082;2023-04-10T08:09:03;100145.31;;;35.24;25.95
11172;BME280;5642;50.830;12.082;2023-04-10T08:11:32;100168.97;;;35.39;25.79
11172;BME280;5642;50.830;12.082;2023-04-10T08:13:59;100186.22;;;35.60;25.83
11172;BME280;5642;50.830;12.082;2023-04-10T08:16:32;100169.31;;;35.65;25.57
11172;BME280;5642;50.830;12.082;2023-04-10T08:18:59;100175.69;;;35.87;25.91
11172;BME280;5642;50.830;12.082;2023-04-10T08:21:27;100171.72;;;36.10;25.83
11172;BME280;5642;50.830;12.082;2023-04-10T08:23:57;100132.75;;;35.95;25.49
11172;BME280;5642;50.830;12.082;2023-04-10T08:26:27;100140.19;;;36.23;25.70
11172;BME280;5642;50.830;12.082;2023-04-10T08:28:57;100131.84;;;36.52;25.21
11172;BME280;5642;50.830;12.082;2023-04-10T08:31:25;100133.84;;;36.99;24.98
11172;BME280;5642;50.830;12.082;2023-04-10T08:33:52;100161.56;;;37.72;24.86
11172;BME280;5642;50.830;12.082;2023-04-10T08:36:18;100162.88;;;38.02;24.56
11172;BME280;5642;50.830;12.082;2023-04-10T08:38:47;100162.50;;;38.25;24.50
11172;BME280;5642;50.830;12.082;2023-04-10T08:41:15;100158.34;;;38.49;24.44
11172;BME280;5642;50.830;12.082;2023-04-10T08:43:42;100155.13;;;38.45;24.48
11172;BME280;5642;50.830;12.082;2023-04-10T08:46:14;100140.63;;;38.18;24.49
11172;BME280;5642;50.830;12.082;2023-04-10T08:49:00;100140.94;;;37.76;24.71
11172;BME280;5642;50.830;12.082;2023-04-10T08:51:56;100138.41;;;37.20;25.43
11172;BME280;5642;50.830;12.082;2023-04-10T08:54:33;100140.19;;;37.06;25.16
11172;BME280;5642;50.830;12.082;2023-04-10T08:57:00;100142.47;;;37.03;25.06
11172;BME280;5642;50.830;12.082;2023-04-10T08:59:27;100134.41;;;36.88;24.93
11172;BME280;5642;50.830;12.082;2023-04-10T09:01:58;100145.31;;;36.60;24.72
11172;BME280;5642;50.830;12.082;2023-04-10T09:04:27;100145.06;;;36.55;24.69
11172;BME280;5642;50.830;12.082;2023-04-10T09:06:53;100144.59;;;36.45;24.86
11172;BME280;5642;50.830;12.082;2023-04-10T09:09:20;100112.63;;;36.39;24.89
11172;BME280;5642;50.830;12.082;2023-04-10T09:14:21;100125.16;;;36.12;24.51
11172;BME280;5642;50.830;12.082;2023-04-10T09:16:51;100126.94;;;36.20;24.26
11172;BME280;5642;50.830;12.082;2023-04-10T09:19:32;100114.00;;;36.28;24.24
11172;BME280;5642;50.830;12.082;2023-04-10T09:21:59;100116.50;;;36.23;24.17
11172;BME280;5642;50.830;12.082;2023-04-10T09:24:26;100116.25;;;36.03;24.39
11172;BME280;5642;50.830;12.082;2023-04-10T09:26:52;100105.38;;;35.82;24.30
11172;BME280;5642;50.830;12.082;2023-04-10T09:29:18;100105.38;;;35.82;24.44
11172;BME280;5642;50.830;12.082;2023-04-10T09:31:44;100108.94;;;35.83;24.32
11172;BME280;5642;50.830;12.082;2023-04-10T09:34:18;100095.72;;;35.80;24.24
11172;BME280;5642;50.830;12.082;2023-04-10T09:36:57;100112.31;;;35.85;24.19
11172;BME280;5642;50.830;12.082;2023-04-10T09:39:35;100097.81;;;35.63;24.50
11172;BME280;5642;50.830;12.082;2023-04-10T09:42:02;100095.66;;;35.58;24.42
11172;BME280;5642;50.830;12.082;2023-04-10T09:44:33;100087.94;;;35.62;24.24
11172;BME280;5642;50.830;12.082;2023-04-10T09:47:17;100085.28;;;35.68;24.12
11172;BME280;5642;50.830;12.082;2023-04-10T09:49:44;100083.41;;;35.18;24.16
11172;BME280;5642;50.830;12.082;2023-04-10T09:52:27;100074.72;;;34.64;24.20
11172;BME280;5642;50.830;12.082;2023-04-10T09:54:55;100073.28;;;34.68;24.46
11172;BME280;5642;50.830;12.082;2023-04-10T09:57:23;100057.72;;;34.91;24.20
11172;BME280;5642;50.830;12.082;2023-04-10T09:59:54;100055.41;;;34.88;24.26
11172;BME280;5642;50.830;12.082;2023-04-10T10:02:22;100052.66;;;34.59;24.06
11172;BME280;5642;50.830;12.082;2023-04-10T10:04:50;100046.06;;;34.24;23.88
11172;BME280;5642;50.830;12.082;2023-04-10T10:07:22;100046.38;;;34.06;24.61
11172;BME280;5642;50.830;12.082;2023-04-10T10:09:53;100044.84;;;34.04;24.46
11172;BME280;5642;50.830;12.082;2023-04-10T10:12:43;100039.28;;;34.20;24.20
11172;BME280;5642;50.830;12.082;2023-04-10T10:15:19;100041.59;;;34.31;24.60
11172;BME280;5642;50.830;12.082;2023-04-10T10:20:44;100030.16;;;34.80;24.13
11172;BME280;5642;50.830;12.082;2023-04-10T10:23:10;100022.09;;;34.86;24.35
11172;BME280;5642;50.830;12.082;2023-04-10T10:25:40;100018.69;;;34.84;24.43
11172;BME280;5642;50.830;12.082;2023-04-10T10:28:11;100013.72;;;34.44;24.28
11172;BME280;5642;50.830;12.082;2023-04-10T10:30:38;100004.13;;;34.33;24.47
11172;BME280;5642;50.830;12.082;2023-04-10T10:33:08;100007.03;;;34.61;24.65
11172;BME280;5642;50.830;12.082;2023-04-10T10:35:43;99996.91;;;34.99;24.65
11172;BME280;5642;50.830;12.082;2023-04-10T10:38:17;99979.59;;;35.43;24.51
11172;BME280;5642;50.830;12.082;2023-04-10T10:41:11;100000.06;;;35.60;23.97
11172;BME280;5642;50.830;12.082;2023-04-10T10:49:07;99975.78;;;36.07;24.36
11172;BME280;5642;50.830;12.082;2023-04-10T10:51:43;99965.66;;;36.01;23.95
11172;BME280;5642;50.830;12.082;2023-04-10T10:56:55;99962.03;;;34.73;24.17
11172;BME280;5642;50.830;12.082;2023-04-10T11:02:17;99946.19;;;34.33;24.39
11172;BME280;5642;50.830;12.082;2023-04-10T11:04:45;99947.69;;;34.50;24.58
11172;BME280;5642;50.830;12.082;2023-04-10T11:07:12;99940.91;;;34.75;24.16
11172;BME280;5642;50.830;12.082;2023-04-10T11:09:59;99942.13;;;35.23;24.05
11172;BME280;5642;50.830;12.082;2023-04-10T11:12:25;99945.03;;;35.43;23.93
11172;BME280;5642;50.830;12.082;2023-04-10T11:15:05;99930.38;;;34.87;23.41
11172;BME280;5642;50.830;12.082;2023-04-10T11:17:51;99919.13;;;33.72;23.18
11172;BME280;5642;50.830;12.082;2023-04-10T11:20:20;99929.38;;;32.94;24.12
11172;BME280;5642;50.830;12.082;2023-04-10T11:23:16;99925.41;;;32.35;23.75
11172;BME280;5642;50.830;12.082;2023-04-10T11:25:52;99920.69;;;32.12;23.97
11172;BME280;5642;50.830;12.082;2023-04-10T11:28:35;99925.03;;;31.74;23.64
11172;BME280;5642;50.830;12.082;2023-04-10T11:31:22;99925.19;;;31.48;23.71
11172;BME280;5642;50.830;12.082;2023-04-10T11:34:01;99916.50;;;30.96;23.87
11172;BME280;5642;50.830;12.082;2023-04-10T11:36:27;99911.22;;;30.36;23.43
11172;BME280;5642;50.830;12.082;2023-04-10T11:39:05;99906.44;;;29.71;23.56
11172;BME280;5642;50.830;12.082;2023-04-10T11:41:35;99912.19;;;29.14;23.51
11172;BME280;5642;50.830;12.082;2023-04-10T11:44:04;99890.81;;;28.68;23.42
11172;BME280;5642;50.830;12.082;2023-04-10T11:46:39;99907.94;;;28.22;23.21
11172;BME280;5642;50.830;12.082;2023-04-10T11:49:07;99896.06;;;27.68;23.19
11172;BME280;5642;50.830;12.082;2023-04-10T11:51:35;99896.38;;;27.17;23.26
11172;BME280;5642;50.830;12.082;2023-04-10T11:54:13;99899.56;;;26.72;23.17
11172;BME280;5642;50.830;12.082;2023-04-10T11:56:41;99887.59;;;26.36;23.20
11172;BME280;5642;50.830;12.082;2023-04-10T11:59:08;99872.06;;;26.00;23.13
11172;BME280;5642;50.830;12.082;2023-04-10T12:01:36;99889.09;;;25.89;22.81
11172;BME280;5642;50.830;12.082;2023-04-10T12:04:02;99870.47;;;25.67;22.95
11172;BME280;5642;50.830;12.082;2023-04-10T12:06:28;99875.41;;;25.51;23.00
11172;BME280;5642;50.830;12.082;2023-04-10T12:08:56;99872.38;;;25.34;22.79
11172;BME280;5642;50.830;12.082;2023-04-10T12:11:25;99876.78;;;25.04;22.94
11172;BME280;5642;50.830;12.082;2023-04-10T12:13:55;99858.03;;;24.61;22.85
11172;BME280;5642;50.830;12.082;2023-04-10T12:16:23;99851.69;;;24.30;23.23
11172;BME280;5642;50.830;12.082;2023-04-10T12:18:49;99869.28;;;24.10;23.35
11172;BME280;5642;50.830;12.082;2023-04-10T12:21:16;99862.97;;;23.89;23.22
11172;BME280;5642;50.830;12.082;2023-04-10T12:23:43;99859.06;;;23.59;23.15
11172;BME280;5642;50.830;12.082;2023-04-10T12:26:10;99858.38;;;23.33;23.49
11172;BME280;5642;50.830;12.082;2023-04-10T12:28:38;99854.47;;;23.15;23.56
11172;BME280;5642;50.830;12.082;2023-04-10T12:31:05;99867.50;;;22.96;23.44
11172;BME280;5642;50.830;12.082;2023-04-10T12:33:31;99842.72;;;22.70;23.29
11172;BME280;5642;50.830;12.082;2023-04-10T12:36:00;99852.91;;;22.52;23.24
11172;BME280;5642;50.830;12.082;2023-04-10T12:38:38;99845.06;;;22.38;23.50
11172;BME280;5642;50.830;12.082;2023-04-10T12:41:05;99840.44;;;22.29;23.37
11172;BME280;5642;50.830;12.082;2023-04-10T12:43:34;99850.56;;;22.24;23.44
11172;BME280;5642;50.830;12.082;2023-04-10T12:46:03;99839.44;;;22.06;23.63
11172;BME280;5642;50.830;12.082;2023-04-10T12:48:29;99823.44;;;21.81;23.70
11172;BME280;5642;50.830;12.082;2023-04-10T12:50:56;99830.38;;;21.71;23.80
11172;BME280;5642;50.830;12.082;2023-04-10T12:53:23;99803.75;;;21.58;23.70
11172;BME280;5642;50.830;12.082;2023-04-10T12:56:03;99825.38;;;21.54;23.84
11172;BME280;5642;50.830;12.082;2023-04-10T12:58:32;99804.06;;;21.28;23.81
11172;BME280;5642;50.830;12.082;2023-04-10T13:01:02;99810.41;;;21.13;23.97
11172;BME280;5642;50.830;12.082;2023-04-10T13:03:29;99820.41;;;20.97;23.92
11172;BME280;5642;50.830;12.082;2023-04-10T13:05:56;99807.06;;;20.84;23.98
11172;BME280;5642;50.830;12.082;2023-04-10T13:08:22;99787.66;;;20.69;24.17
11172;BME280;5642;50.830;12.082;2023-04-10T13:10:49;99787.72;;;20.55;24.18
11172;BME280;5642;50.830;12.082;2023-04-10T13:13:16;99793.63;;;20.46;24.32
11172;BME280;5642;50.830;12.082;2023-04-10T13:15:42;99791.78;;;20.34;24.02
11172;BME280;5642;50.830;12.082;2023-04-10T13:18:09;99788.00;;;20.24;24.13
11172;BME280;5642;50.830;12.082;2023-04-10T13:20:37;99773.00;;;20.23;24.46
11172;BME280;5642;50.830;12.082;2023-04-10T13:23:05;99774.81;;;20.22;24.22
11172;BME280;5642;50.830;12.082;2023-04-10T13:25:36;99768.09;;;20.17;24.21
11172;BME280;5642;50.830;12.082;2023-04-10T13:28:05;99761.06;;;20.16;24.55
11172;BME280;5642;50.830;12.082;2023-04-10T13:30:37;99756.16;;;20.10;24.26
11172;BME280;5642;50.830;12.082;2023-04-10T13:33:04;99737.25;;;20.00;24.21
11172;BME280;5642;50.830;12.082;2023-04-10T13:35:30;99743.53;;;19.99;24.58